createdAt,value
2018-02-22T00:00:03.209Z,-2.00
2018-02-22T00:04:54.141Z,-2.10
2018-02-22T00:09:45.075Z,-2.10
2018-02-22T00:14:36.007Z,-2.20
2018-02-22T00:19:26.942Z,-2.20
2018-02-22T00:24:17.861Z,-2.30
2018-02-22T00:29:08.777Z,-2.40
2018-02-22T00:33:59.715Z,-2.40
2018-02-22T00:38:51.380Z,-2.60
2018-02-22T00:43:42.301Z,-2.60
2018-02-22T00:48:33.277Z,-2.60
2018-02-22T00:53:24.998Z,-2.70
2018-02-22T00:58:15.913Z,-2.80
2018-02-22T01:03:06.936Z,-2.80
2018-02-22T01:07:57.876Z,-2.80
2018-02-22T01:12:49.592Z,-2.90
2018-02-22T01:17:40.537Z,-2.90
2018-02-22T01:22:32.198Z,-2.90
2018-02-22T01:27:23.115Z,-3.00
2018-02-22T01:32:14.030Z,-2.90
2018-02-22T01:37:05.686Z,-2.80
2018-02-22T01:41:56.602Z,-2.90
2018-02-22T01:46:47.558Z,-2.80
2018-02-22T01:51:38.470Z,-2.70
2018-02-22T01:56:29.394Z,-2.60
2018-02-22T02:01:20.314Z,-2.50
2018-02-22T02:06:11.233Z,-2.40
2018-02-22T02:11:02.145Z,-2.30
2018-02-22T02:15:53.075Z,-2.30
2018-02-22T02:20:44.006Z,-2.20
2018-02-22T02:25:35.662Z,-2.00
2018-02-22T02:30:26.607Z,-2.10
2018-02-22T02:35:17.570Z,-2.00
2018-02-22T02:40:08.486Z,-1.90
2018-02-22T02:44:59.421Z,-1.90
2018-02-22T02:49:51.142Z,-1.80
2018-02-22T02:54:42.170Z,-1.80
2018-02-22T02:59:33.084Z,-1.80
2018-02-22T03:04:23.998Z,-1.70
2018-02-22T03:09:14.941Z,-1.70
2018-02-22T03:14:06.630Z,-1.70
2018-02-22T03:18:57.606Z,-1.70
2018-02-22T03:23:49.294Z,-1.70
2018-02-22T03:28:40.245Z,-1.80
2018-02-22T03:33:31.177Z,-1.80
2018-02-22T03:38:22.906Z,-2.00
2018-02-22T03:43:14.586Z,-2.00
2018-02-22T03:48:05.520Z,-2.10
2018-02-22T03:52:56.457Z,-2.10
2018-02-22T03:57:47.531Z,-2.20
2018-02-22T04:02:38.540Z,-2.30
2018-02-22T04:07:29.489Z,-2.30
2018-02-22T04:12:20.416Z,-2.30
2018-02-22T04:17:11.341Z,-2.30
2018-02-22T04:22:02.265Z,-2.40
2018-02-22T04:26:53.214Z,-2.40
2018-02-22T04:31:44.909Z,-2.50
2018-02-22T04:36:35.841Z,-2.50
2018-02-22T04:41:26.773Z,-2.60
2018-02-22T04:46:17.705Z,-2.60
2018-02-22T04:51:09.469Z,-2.80
2018-02-22T04:56:00.398Z,-2.80
2018-02-22T05:00:51.322Z,-2.90
2018-02-22T05:05:42.248Z,-2.90
2018-02-22T05:10:33.195Z,-3.00
2018-02-22T05:15:24.102Z,-3.00
2018-02-22T05:20:15.752Z,-3.20
2018-02-22T05:25:06.656Z,-3.20
2018-02-22T05:29:57.738Z,-3.30
2018-02-22T05:34:48.717Z,-3.40
2018-02-22T05:39:39.641Z,-3.40
2018-02-22T05:44:30.543Z,-3.50
2018-02-22T05:49:21.457Z,-3.50
2018-02-22T05:54:12.349Z,-3.60
2018-02-22T05:59:03.302Z,-3.60
2018-02-22T06:03:54.201Z,-3.70
2018-02-22T06:08:45.139Z,-3.80
2018-02-22T06:13:36.038Z,-3.80
2018-02-22T06:18:26.975Z,-3.80
2018-02-22T06:23:17.873Z,-3.90
2018-02-22T06:28:09.010Z,-4.00
2018-02-22T06:32:59.938Z,-4.00
2018-02-22T06:37:50.862Z,-4.10
2018-02-22T06:42:41.765Z,-4.20
2018-02-22T06:47:32.666Z,-4.20
2018-02-22T06:52:23.602Z,-4.30
2018-02-22T06:57:14.469Z,-4.30
2018-02-22T07:02:06.106Z,-4.30
2018-02-22T07:06:57.746Z,-4.40
2018-02-22T07:11:48.634Z,-4.40
2018-02-22T07:16:39.521Z,-4.30
2018-02-22T07:21:31.258Z,-4.30
2018-02-22T07:26:22.145Z,-4.30
2018-02-22T07:31:13.026Z,-4.30
2018-02-22T07:36:03.913Z,-4.20
2018-02-22T07:46:12.663Z,-4.10
2018-02-22T07:51:04.282Z,-3.90
2018-02-22T07:55:55.178Z,-3.90
2018-02-22T08:00:46.251Z,-3.80
2018-02-22T08:05:37.178Z,-3.70
2018-02-22T08:10:28.081Z,-3.60
2018-02-22T08:15:19.040Z,-3.40
2018-02-22T08:20:09.914Z,-3.30
2018-02-22T08:25:00.990Z,-3.20
2018-02-22T08:29:51.902Z,-3.00
2018-02-22T08:34:42.793Z,-2.80
2018-02-22T08:39:34.458Z,-2.40
2018-02-22T08:44:25.346Z,-2.50
2018-02-22T08:49:16.238Z,-2.30
2018-02-22T08:54:07.117Z,-2.10
2018-02-22T08:58:58.005Z,-1.90
2018-02-22T09:03:48.894Z,-1.70
2018-02-22T09:08:39.799Z,-1.50
2018-02-22T09:13:30.708Z,-1.40
2018-02-22T09:18:22.337Z,-1.00
2018-02-22T09:23:13.979Z,-0.90
2018-02-22T09:28:04.870Z,-0.90
2018-02-22T09:32:55.766Z,-0.70
2018-02-22T09:37:46.653Z,-0.60
2018-02-22T09:42:37.551Z,-0.50
2018-02-22T09:47:29.186Z,-0.20
2018-02-22T09:52:20.831Z,-0.10
2018-02-22T09:57:11.728Z,-0.10
2018-02-22T10:02:03.370Z,0.20
2018-02-22T10:06:55.009Z,0.30
2018-02-22T10:11:46.658Z,0.30
2018-02-22T10:16:37.540Z,0.30
2018-02-22T10:21:28.427Z,0.40
2018-02-22T10:26:19.320Z,0.50
2018-02-22T10:31:10.217Z,0.50
2018-02-22T10:36:01.875Z,0.70
2018-02-22T10:40:52.771Z,0.70
2018-02-22T10:45:44.405Z,0.90
2018-02-22T10:50:36.050Z,1.00
2018-02-22T10:55:26.950Z,1.00
2018-02-22T11:00:24.967Z,1.30
2018-02-22T11:05:15.878Z,1.30
2018-02-22T11:10:06.834Z,1.50
2018-02-22T11:14:57.725Z,1.90
2018-02-22T11:19:48.675Z,2.30
2018-02-22T11:24:39.542Z,2.70
2018-02-22T11:29:30.430Z,3.10
2018-02-22T11:34:21.421Z,3.30
2018-02-22T11:39:13.066Z,3.60
2018-02-22T11:44:03.964Z,3.60
2018-02-22T11:48:54.854Z,3.70
2018-02-22T11:53:45.753Z,3.90
2018-02-22T11:58:37.390Z,4.40
2018-02-22T12:03:29.025Z,4.60
2018-02-22T12:08:20.669Z,4.80
2018-02-22T12:13:12.299Z,4.90
2018-02-22T12:18:03.938Z,5.00
2018-02-22T12:22:55.594Z,5.00
2018-02-22T12:27:46.482Z,5.00
2018-02-22T12:32:38.125Z,5.10
2018-02-22T12:37:29.758Z,5.10
2018-02-22T12:42:21.396Z,5.10
2018-02-22T12:47:13.026Z,5.10
2018-02-22T12:52:04.666Z,5.20
2018-02-22T12:56:56.294Z,5.20
2018-02-22T13:01:47.932Z,5.20
2018-02-22T13:06:39.554Z,5.10
2018-02-22T13:11:30.438Z,5.20
2018-02-22T13:16:21.343Z,5.10
2018-02-22T13:21:12.230Z,5.10
2018-02-22T13:26:03.130Z,5.10
2018-02-22T13:30:54.753Z,5.00
2018-02-22T13:35:45.657Z,5.00
2018-02-22T13:40:36.555Z,4.90
2018-02-22T13:45:30.475Z,4.90
2018-02-22T13:50:34.005Z,4.80
2018-02-22T13:55:25.654Z,4.70
2018-02-22T14:00:29.767Z,4.60
2018-02-22T14:05:21.528Z,4.50
2018-02-22T14:10:12.338Z,4.50
2018-02-22T14:15:03.995Z,4.40
2018-02-22T14:19:54.910Z,4.40
2018-02-22T14:24:45.834Z,4.30
2018-02-22T14:29:36.745Z,4.20
2018-02-22T14:34:27.727Z,4.20
2018-02-22T14:39:19.382Z,4.00
2018-02-22T14:44:11.229Z,3.90
2018-02-22T14:49:02.206Z,3.90
2018-02-22T14:53:53.118Z,3.90
2018-02-22T14:58:44.031Z,3.80
2018-02-22T15:03:34.946Z,3.70
2018-02-22T15:08:25.866Z,3.60
2018-02-22T15:13:16.902Z,3.60
2018-02-22T15:18:07.806Z,3.50
2018-02-22T15:22:58.714Z,3.40
2018-02-22T15:27:49.665Z,3.30
2018-02-22T15:32:40.574Z,3.20
2018-02-22T15:37:31.502Z,3.20
2018-02-22T15:42:22.410Z,3.10
2018-02-22T15:47:13.357Z,3.00
2018-02-22T15:52:05.025Z,2.90
2018-02-22T15:56:56.040Z,2.90
2018-02-22T16:01:47.006Z,2.80
2018-02-22T16:06:37.917Z,2.70
2018-02-22T16:11:28.854Z,2.70
2018-02-22T16:16:19.873Z,2.60
2018-02-22T16:21:10.886Z,2.50
2018-02-22T16:26:01.811Z,2.40
2018-02-22T16:30:52.722Z,2.30
2018-02-22T16:35:43.818Z,2.30
2018-02-22T16:40:34.723Z,2.20
2018-02-22T16:45:25.682Z,2.10
2018-02-22T16:50:16.605Z,2.00
2018-02-22T16:55:07.525Z,1.90
2018-02-22T16:59:58.446Z,1.80
2018-02-22T17:04:49.354Z,1.70
2018-02-22T17:09:40.263Z,1.70
2018-02-22T17:14:31.170Z,1.60
2018-02-22T17:19:22.073Z,1.50
2018-02-22T17:24:12.982Z,1.50
2018-02-22T17:29:09.957Z,1.40
2018-02-22T17:34:00.902Z,1.30
2018-02-22T17:39:01.798Z,1.30
2018-02-22T17:43:53.450Z,1.20
2018-02-22T17:48:44.366Z,1.10
2018-02-22T17:53:35.285Z,1.10
2018-02-22T17:58:26.253Z,1.10
2018-02-22T18:03:17.253Z,1.00
2018-02-22T18:08:08.159Z,1.00
2018-02-22T18:12:59.102Z,0.90
2018-02-22T18:17:50.002Z,0.90
2018-02-22T18:22:40.986Z,0.90
2018-02-22T18:27:31.930Z,0.80
2018-02-22T18:32:22.895Z,0.80
2018-02-22T18:37:20.147Z,0.80
2018-02-22T18:42:17.166Z,0.70
2018-02-22T18:47:08.078Z,0.70
2018-02-22T18:51:59.187Z,0.70
2018-02-22T18:56:50.110Z,0.70
2018-02-22T19:01:41.817Z,0.60
2018-02-22T19:06:32.806Z,0.60
2018-02-22T19:11:23.734Z,0.60
2018-02-22T19:16:14.625Z,0.50
2018-02-22T19:21:05.509Z,0.40
2018-02-22T19:25:56.458Z,0.40
2018-02-22T19:30:47.334Z,0.30
2018-02-22T19:35:38.221Z,0.20
2018-02-22T19:40:29.148Z,0.10
2018-02-22T19:45:20.066Z,0.00
2018-02-22T19:50:11.802Z,-0.20
2018-02-22T19:55:02.714Z,-0.20
2018-02-22T19:59:53.654Z,-0.30
2018-02-22T20:04:44.549Z,-0.40
2018-02-22T20:09:35.454Z,-0.50
2018-02-22T20:14:26.355Z,-0.60
2018-02-22T20:19:17.298Z,-0.70
2018-02-22T20:24:08.230Z,-0.70
2018-02-22T20:28:59.861Z,-0.80
2018-02-22T20:33:50.786Z,-0.80
2018-02-22T20:38:42.518Z,-0.90
2018-02-22T20:43:33.450Z,-0.90
2018-02-22T20:48:24.355Z,-1.00
2018-02-22T20:53:16.230Z,-1.00
2018-02-22T20:58:07.890Z,-1.20
2018-02-22T21:02:58.824Z,-1.20
2018-02-22T21:07:49.797Z,-1.20
2018-02-22T21:12:40.693Z,-1.30
2018-02-22T21:17:31.622Z,-1.30
2018-02-22T21:22:22.535Z,-1.40
2018-02-22T21:27:14.291Z,-1.40
2018-02-22T21:32:05.313Z,-1.40
2018-02-22T21:36:56.323Z,-1.40
2018-02-22T21:41:47.246Z,-1.40
2018-02-22T21:46:38.253Z,-1.40
2018-02-22T21:51:29.161Z,-1.40
2018-02-22T21:56:20.098Z,-1.30
2018-02-22T22:01:11.006Z,-1.30
2018-02-22T22:06:02.000Z,-1.30
2018-02-22T22:10:52.925Z,-1.30
2018-02-22T22:15:43.869Z,-1.30
2018-02-22T22:20:34.822Z,-1.20
2018-02-22T22:25:33.482Z,-1.20
2018-02-22T22:30:24.626Z,-1.20
2018-02-22T22:35:15.538Z,-1.20
2018-02-22T22:40:06.450Z,-1.20
2018-02-22T22:44:57.373Z,-1.20
2018-02-22T22:49:48.287Z,-1.10
2018-02-22T22:54:39.314Z,-1.10
2018-02-22T22:59:30.243Z,-1.10
2018-02-22T23:04:21.141Z,-1.10
2018-02-22T23:09:12.050Z,-1.00
2018-02-22T23:14:02.969Z,-1.00
2018-02-22T23:18:53.859Z,-1.00
2018-02-22T23:23:44.818Z,-1.00
2018-02-22T23:28:35.720Z,-0.90
2018-02-22T23:33:26.636Z,-0.90
2018-02-22T23:38:17.557Z,-0.90
2018-02-22T23:43:08.486Z,-0.90
2018-02-22T23:47:59.394Z,-0.90
2018-02-22T23:52:50.346Z,-0.80
2018-02-22T23:57:41.274Z,-0.80
